sensor_id;sensor_type;location;lat;lon;timestamp;temperature;humidity
7588;DHT22;3835;48.850;8.938;2022-11-27T00:02:03;1.70;99.90
7588;DHT22;3835;48.850;8.938;2022-11-27T00:04:30;1.70;99.90
7588;DHT22;3835;48.850;8.938;2022-11-27T00:06:58;1.70;99.90
7588;DHT22;3835;48.850;8.938;2022-11-27T00:09:25;1.70;99.90
7588;DHT22;3835;48.850;8.938;2022-11-27T00:11:52;1.70;99.90
7588;DHT22;3835;48.850;8.938;2022-11-27T00:14:19;1.70;99.90
7588;DHT22;3835;48.850;8.938;2022-11-27T00:16:46;1.70;99.90
7588;DHT22;3835;48.850;8.938;2022-11-27T00:19:12;1.70;99.90
7588;DHT22;3835;48.850;8.938;2022-11-27T00:21:39;1.60;99.90
7588;DHT22;3835;48.850;8.938;2022-11-27T00:24:09;1.60;99.90
7588;DHT22;3835;48.850;8.938;2022-11-27T00:26:36;1.60;99.90
7588;DHT22;3835;48.850;8.938;2022-11-27T00:29:03;1.60;99.90
7588;DHT22;3835;48.850;8.938;2022-11-27T00:31:31;1.60;99.90
7588;DHT22;3835;48.850;8.938;2022-11-27T00:34:00;1.50;99.90
7588;DHT22;3835;48.850;8.938;2022-11-27T00:36:31;1.60;99.90
7588;DHT22;3835;48.850;8.938;2022-11-27T00:38:58;1.60;99.90
7588;DHT22;3835;48.850;8.938;2022-11-27T00:41:28;1.60;99.90
7588;DHT22;3835;48.850;8.938;2022-11-27T00:43:55;1.70;99.90
7588;DHT22;3835;48.850;8.938;2022-11-27T00:46:25;1.60;99.90
7588;DHT22;3835;48.850;8.938;2022-11-27T00:48:52;1.60;99.90
7588;DHT22;3835;48.850;8.938;2022-11-27T00:51:21;1.60;99.90
7588;DHT22;3835;48.850;8.938;2022-11-27T00:53:48;1.60;99.90
7588;DHT22;3835;48.850;8.938;2022-11-27T00:56:16;1.60;99.90
7588;DHT22;3835;48.850;8.938;2022-11-27T00:58:45;1.60;99.90
7588;DHT22;3835;48.850;8.938;2022-11-27T01:01:17;1.70;99.90
7588;DHT22;3835;48.850;8.938;2022-11-27T01:03:45;1.70;99.90
7588;DHT22;3835;48.850;8.938;2022-11-27T01:06:13;1.70;99.90
7588;DHT22;3835;48.850;8.938;2022-11-27T01:08:40;1.50;99.90
7588;DHT22;3835;48.850;8.938;2022-11-27T01:11:12;1.60;99.90
7588;DHT22;3835;48.850;8.938;2022-11-27T01:13:39;1.50;99.90
7588;DHT22;3835;48.850;8.938;2022-11-27T01:16:09;1.50;99.90
7588;DHT22;3835;48.850;8.938;2022-11-27T01:18:38;1.50;99.90
7588;DHT22;3835;48.850;8.938;2022-11-27T01:21:05;1.50;99.90
7588;DHT22;3835;48.850;8.938;2022-11-27T01:23:33;1.50;99.90
7588;DHT22;3835;48.850;8.938;2022-11-27T01:26:00;1.40;99.90
7588;DHT22;3835;48.850;8.938;2022-11-27T01:28:27;1.40;99.90
7588;DHT22;3835;48.850;8.938;2022-11-27T01:30:54;1.50;99.90
7588;DHT22;3835;48.850;8.938;2022-11-27T01:33:22;1.40;99.90
7588;DHT22;3835;48.850;8.938;2022-11-27T01:35:53;1.40;99.90
7588;DHT22;3835;48.850;8.938;2022-11-27T01:38:20;1.40;99.90
7588;DHT22;3835;48.850;8.938;2022-11-27T01:40:47;1.40;99.90
7588;DHT22;3835;48.850;8.938;2022-11-27T01:43:15;1.40;99.90
7588;DHT22;3835;48.850;8.938;2022-11-27T01:45:42;1.40;99.90
7588;DHT22;3835;48.850;8.938;2022-11-27T01:48:12;1.30;99.90
7588;DHT22;3835;48.850;8.938;2022-11-27T01:50:41;1.30;99.90
7588;DHT22;3835;48.850;8.938;2022-11-27T01:53:11;1.20;99.90
7588;DHT22;3835;48.850;8.938;2022-11-27T01:55:41;1.30;99.90
7588;DHT22;3835;48.850;8.938;2022-11-27T01:58:10;1.30;99.90
7588;DHT22;3835;48.850;8.938;2022-11-27T02:00:38;1.30;99.90
7588;DHT22;3835;48.850;8.938;2022-11-27T02:03:05;1.30;99.90
7588;DHT22;3835;48.850;8.938;2022-11-27T02:05:33;1.30;99.90
7588;DHT22;3835;48.850;8.938;2022-11-27T02:08:04;1.20;99.90
7588;DHT22;3835;48.850;8.938;2022-11-27T02:10:38;1.20;99.90
7588;DHT22;3835;48.850;8.938;2022-11-27T02:13:12;1.20;99.90
7588;DHT22;3835;48.850;8.938;2022-11-27T02:15:43;1.20;99.90
7588;DHT22;3835;48.850;8.938;2022-11-27T02:18:18;1.10;99.90
7588;DHT22;3835;48.850;8.938;2022-11-27T02:20:51;1.10;99.90
7588;DHT22;3835;48.850;8.938;2022-11-27T02:23:40;1.10;99.90
7588;DHT22;3835;48.850;8.938;2022-11-27T02:26:39;1.00;99.90
7588;DHT22;3835;48.850;8.938;2022-11-27T02:29:10;1.10;99.90
7588;DHT22;3835;48.850;8.938;2022-11-27T02:31:40;1.10;99.90
7588;DHT22;3835;48.850;8.938;2022-11-27T02:34:18;1.10;99.90
7588;DHT22;3835;48.850;8.938;2022-11-27T02:36:52;1.20;99.90
7588;DHT22;3835;48.850;8.938;2022-11-27T02:39:23;1.20;99.90
7588;DHT22;3835;48.850;8.938;2022-11-27T02:41:54;1.20;99.90
7588;DHT22;3835;48.850;8.938;2022-11-27T02:44:25;1.10;99.90
7588;DHT22;3835;48.850;8.938;2022-11-27T02:46:55;1.10;99.90
7588;DHT22;3835;48.850;8.938;2022-11-27T02:49:23;1.10;99.90
7588;DHT22;3835;48.850;8.938;2022-11-27T02:51:52;1.00;99.90
7588;DHT22;3835;48.850;8.938;2022-11-27T02:54:25;1.00;99.90
7588;DHT22;3835;48.850;8.938;2022-11-27T02:56:53;1.00;99.90
7588;DHT22;3835;48.850;8.938;2022-11-27T02:59:24;1.00;99.90
7588;DHT22;3835;48.850;8.938;2022-11-27T03:01:54;1.00;99.90
7588;DHT22;3835;48.850;8.938;2022-11-27T03:04:24;0.90;99.90
7588;DHT22;3835;48.850;8.938;2022-11-27T03:06:57;0.90;99.90
7588;DHT22;3835;48.850;8.938;2022-11-27T03:09:28;0.90;99.90
7588;DHT22;3835;48.850;8.938;2022-11-27T03:11:57;0.90;99.90
7588;DHT22;3835;48.850;8.938;2022-11-27T03:14:26;0.90;99.90
7588;DHT22;3835;48.850;8.938;2022-11-27T03:16:59;0.90;99.90
7588;DHT22;3835;48.850;8.938;2022-11-27T03:19:32;0.90;99.90
7588;DHT22;3835;48.850;8.938;2022-11-27T03:22:03;0.80;99.90
7588;DHT22;3835;48.850;8.938;2022-11-27T03:24:32;0.70;99.90
7588;DHT22;3835;48.850;8.938;2022-11-27T03:27:00;0.70;99.90
7588;DHT22;3835;48.850;8.938;2022-11-27T03:29:33;0.60;99.90
7588;DHT22;3835;48.850;8.938;2022-11-27T03:32:01;0.60;99.90
7588;DHT22;3835;48.850;8.938;2022-11-27T03:34:28;0.60;99.90
7588;DHT22;3835;48.850;8.938;2022-11-27T03:36:55;0.60;99.90
7588;DHT22;3835;48.850;8.938;2022-11-27T03:39:22;0.70;99.90
7588;DHT22;3835;48.850;8.938;2022-11-27T03:41:56;0.70;99.90
7588;DHT22;3835;48.850;8.938;2022-11-27T03:44:31;0.80;99.90
7588;DHT22;3835;48.850;8.938;2022-11-27T03:47:05;0.80;99.90
7588;DHT22;3835;48.850;8.938;2022-11-27T03:49:43;0.90;99.90
7588;DHT22;3835;48.850;8.938;2022-11-27T03:52:19;1.00;99.90
7588;DHT22;3835;48.850;8.938;2022-11-27T03:54:56;1.00;99.90
7588;DHT22;3835;48.850;8.938;2022-11-27T03:57:28;1.00;99.90
7588;DHT22;3835;48.850;8.938;2022-11-27T03:59:59;1.00;99.90
7588;DHT22;3835;48.850;8.938;2022-11-27T04:02:30;1.00;99.90
7588;DHT22;3835;48.850;8.938;2022-11-27T04:05:04;0.90;99.90
7588;DHT22;3835;48.850;8.938;2022-11-27T04:07:31;0.90;99.90
7588;DHT22;3835;48.850;8.938;2022-11-27T04:09:58;0.90;99.90
7588;DHT22;3835;48.850;8.938;2022-11-27T04:12:24;1.00;99.90
7588;DHT22;3835;48.850;8.938;2022-11-27T04:14:51;0.90;99.90
7588;DHT22;3835;48.850;8.938;2022-11-27T04:17:19;0.90;99.90
7588;DHT22;3835;48.850;8.938;2022-11-27T04:19:46;0.80;99.90
7588;DHT22;3835;48.850;8.938;2022-11-27T04:22:13;0.80;99.90
7588;DHT22;3835;48.850;8.938;2022-11-27T04:24:39;0.80;99.90
7588;DHT22;3835;48.850;8.938;2022-11-27T04:27:06;0.80;99.90
7588;DHT22;3835;48.850;8.938;2022-11-27T04:29:33;0.80;99.90
7588;DHT22;3835;48.850;8.938;2022-11-27T04:32:01;0.70;99.90
7588;DHT22;3835;48.850;8.938;2022-11-27T04:34:31;0.70;99.90
7588;DHT22;3835;48.850;8.938;2022-11-27T04:36:58;0.70;99.90
7588;DHT22;3835;48.850;8.938;2022-11-27T04:39:25;0.70;99.90
7588;DHT22;3835;48.850;8.938;2022-11-27T04:41:51;0.70;99.90
7588;DHT22;3835;48.850;8.938;2022-11-27T04:44:18;0.70;99.90
7588;DHT22;3835;48.850;8.938;2022-11-27T04:46:47;0.60;99.90
7588;DHT22;3835;48.850;8.938;2022-11-27T04:49:14;0.60;99.90
7588;DHT22;3835;48.850;8.938;2022-11-27T04:51:42;0.50;99.90
7588;DHT22;3835;48.850;8.938;2022-11-27T04:54:09;0.50;99.90
7588;DHT22;3835;48.850;8.938;2022-11-27T04:56:35;0.50;99.90
7588;DHT22;3835;48.850;8.938;2022-11-27T04:59:03;0.50;99.90
7588;DHT22;3835;48.850;8.938;2022-11-27T05:01:30;0.40;99.90
7588;DHT22;3835;48.850;8.938;2022-11-27T05:03:57;0.40;99.90
7588;DHT22;3835;48.850;8.938;2022-11-27T05:06:24;0.30;99.90
7588;DHT22;3835;48.850;8.938;2022-11-27T05:08:52;0.40;99.90
7588;DHT22;3835;48.850;8.938;2022-11-27T05:11:24;0.40;99.90
7588;DHT22;3835;48.850;8.938;2022-11-27T05:13:51;0.40;99.90
7588;DHT22;3835;48.850;8.938;2022-11-27T05:16:39;0.40;99.90
7588;DHT22;3835;48.850;8.938;2022-11-27T05:19:08;0.30;99.90
7588;DHT22;3835;48.850;8.938;2022-11-27T05:21:35;0.30;99.90
7588;DHT22;3835;48.850;8.938;2022-11-27T05:24:04;0.30;99.90
7588;DHT22;3835;48.850;8.938;2022-11-27T05:26:31;0.20;99.90
7588;DHT22;3835;48.850;8.938;2022-11-27T05:28:59;0.20;99.90
7588;DHT22;3835;48.850;8.938;2022-11-27T05:31:25;0.20;99.90
7588;DHT22;3835;48.850;8.938;2022-11-27T05:33:52;0.20;99.90
7588;DHT22;3835;48.850;8.938;2022-11-27T05:36:19;0.10;99.90
7588;DHT22;3835;48.850;8.938;2022-11-27T05:38:46;0.10;99.90
7588;DHT22;3835;48.850;8.938;2022-11-27T05:41:14;0.10;99.90
7588;DHT22;3835;48.850;8.938;2022-11-27T05:43:41;0.00;99.90
7588;DHT22;3835;48.850;8.938;2022-11-27T05:46:09;0.00;99.90
7588;DHT22;3835;48.850;8.938;2022-11-27T05:48:36;0.10;99.90
7588;DHT22;3835;48.850;8.938;2022-11-27T05:51:04;0.10;99.90
7588;DHT22;3835;48.850;8.938;2022-11-27T05:53:31;0.00;99.90
7588;DHT22;3835;48.850;8.938;2022-11-27T05:56:00;0.00;99.90
7588;DHT22;3835;48.850;8.938;2022-11-27T05:58:28;0.00;99.90
7588;DHT22;3835;48.850;8.938;2022-11-27T06:00:55;0.10;99.90
7588;DHT22;3835;48.850;8.938;2022-11-27T06:03:22;0.20;99.90
7588;DHT22;3835;48.850;8.938;2022-11-27T06:05:49;0.20;99.90
7588;DHT22;3835;48.850;8.938;2022-11-27T06:08:16;0.20;99.90
7588;DHT22;3835;48.850;8.938;2022-11-27T06:10:44;0.20;99.90
7588;DHT22;3835;48.850;8.938;2022-11-27T06:13:11;0.20;99.90
7588;DHT22;3835;48.850;8.938;2022-11-27T06:15:39;0.20;99.90
7588;DHT22;3835;48.850;8.938;2022-11-27T06:18:06;0.20;99.90
7588;DHT22;3835;48.850;8.938;2022-11-27T06:20:33;0.10;99.90
7588;DHT22;3835;48.850;8.938;2022-11-27T06:23:00;0.20;99.90
7588;DHT22;3835;48.850;8.938;2022-11-27T06:25:27;0.20;99.90
7588;DHT22;3835;48.850;8.938;2022-11-27T06:27:53;0.20;99.90
7588;DHT22;3835;48.850;8.938;2022-11-27T06:30:20;0.20;99.90
7588;DHT22;3835;48.850;8.938;2022-11-27T06:32:49;0.10;99.90
7588;DHT22;3835;48.850;8.938;2022-11-27T06:35:15;0.10;99.90
7588;DHT22;3835;48.850;8.938;2022-11-27T06:37:42;0.10;99.90
7588;DHT22;3835;48.850;8.938;2022-11-27T06:40:09;0.00;99.90
7588;DHT22;3835;48.850;8.938;2022-11-27T06:42:36;0.00;99.90
7588;DHT22;3835;48.850;8.938;2022-11-27T06:45:04;0.00;99.90
7588;DHT22;3835;48.850;8.938;2022-11-27T06:47:31;0.00;99.90
7588;DHT22;3835;48.850;8.938;2022-11-27T06:49:59;0.10;99.90
7588;DHT22;3835;48.850;8.938;2022-11-27T06:52:25;0.00;99.90
7588;DHT22;3835;48.850;8.938;2022-11-27T06:54:52;0.00;99.90
7588;DHT22;3835;48.850;8.938;2022-11-27T06:57:19;0.10;99.90
7588;DHT22;3835;48.850;8.938;2022-11-27T06:59:46;0.20;99.90
7588;DHT22;3835;48.850;8.938;2022-11-27T07:02:13;0.30;99.90
7588;DHT22;3835;48.850;8.938;2022-11-27T07:04:40;0.30;99.90
7588;DHT22;3835;48.850;8.938;2022-11-27T07:07:08;0.40;99.90
7588;DHT22;3835;48.850;8.938;2022-11-27T07:09:35;0.50;99.90
7588;DHT22;3835;48.850;8.938;2022-11-27T07:12:03;0.70;99.90
7588;DHT22;3835;48.850;8.938;2022-11-27T07:14:30;0.80;99.90
7588;DHT22;3835;48.850;8.938;2022-11-27T07:16:57;0.90;99.90
7588;DHT22;3835;48.850;8.938;2022-11-27T07:19:24;1.00;99.90
7588;DHT22;3835;48.850;8.938;2022-11-27T07:21:51;1.00;99.90
7588;DHT22;3835;48.850;8.938;2022-11-27T07:24:19;1.10;99.90
7588;DHT22;3835;48.850;8.938;2022-11-27T07:26:46;1.20;99.90
7588;DHT22;3835;48.850;8.938;2022-11-27T07:29:13;1.20;99.90
7588;DHT22;3835;48.850;8.938;2022-11-27T07:31:39;1.30;99.90
7588;DHT22;3835;48.850;8.938;2022-11-27T07:34:06;1.40;99.90
7588;DHT22;3835;48.850;8.938;2022-11-27T07:36:33;1.50;99.90
7588;DHT22;3835;48.850;8.938;2022-11-27T07:39:00;1.50;99.90
7588;DHT22;3835;48.850;8.938;2022-11-27T07:41:28;1.70;99.90
7588;DHT22;3835;48.850;8.938;2022-11-27T07:43:58;1.70;99.90
7588;DHT22;3835;48.850;8.938;2022-11-27T07:46:25;1.80;99.90
7588;DHT22;3835;48.850;8.938;2022-11-27T07:48:52;1.80;99.90
7588;DHT22;3835;48.850;8.938;2022-11-27T07:51:19;1.80;99.90
7588;DHT22;3835;48.850;8.938;2022-11-27T07:53:47;1.90;99.90
7588;DHT22;3835;48.850;8.938;2022-11-27T07:56:17;1.90;99.90
7588;DHT22;3835;48.850;8.938;2022-11-27T07:58:45;1.90;99.90
7588;DHT22;3835;48.850;8.938;2022-11-27T08:01:14;2.00;99.90
7588;DHT22;3835;48.850;8.938;2022-11-27T08:03:40;2.10;99.90
7588;DHT22;3835;48.850;8.938;2022-11-27T08:06:14;2.10;99.90
7588;DHT22;3835;48.850;8.938;2022-11-27T08:08:41;2.20;99.90
7588;DHT22;3835;48.850;8.938;2022-11-27T08:11:15;2.30;99.90
7588;DHT22;3835;48.850;8.938;2022-11-27T08:13:42;2.40;99.90
7588;DHT22;3835;48.850;8.938;2022-11-27T08:16:10;2.50;99.90
7588;DHT22;3835;48.850;8.938;2022-11-27T08:18:37;2.70;99.90
7588;DHT22;3835;48.850;8.938;2022-11-27T08:21:04;2.90;99.90
7588;DHT22;3835;48.850;8.938;2022-11-27T08:23:31;3.00;99.90
7588;DHT22;3835;48.850;8.938;2022-11-27T08:25:58;3.10;99.90
7588;DHT22;3835;48.850;8.938;2022-11-27T08:28:25;3.20;99.90
7588;DHT22;3835;48.850;8.938;2022-11-27T08:30:56;3.40;99.90
7588;DHT22;3835;48.850;8.938;2022-11-27T08:33:25;3.50;99.90
7588;DHT22;3835;48.850;8.938;2022-11-27T08:35:52;3.60;99.90
7588;DHT22;3835;48.850;8.938;2022-11-27T08:38:20;3.60;99.90
7588;DHT22;3835;48.850;8.938;2022-11-27T08:40:53;3.70;99.90
7588;DHT22;3835;48.850;8.938;2022-11-27T08:43:20;3.80;99.90
7588;DHT22;3835;48.850;8.938;2022-11-27T08:45:47;3.90;99.90
7588;DHT22;3835;48.850;8.938;2022-11-27T08:48:14;4.10;99.90
7588;DHT22;3835;48.850;8.938;2022-11-27T08:50:43;4.20;99.90
7588;DHT22;3835;48.850;8.938;2022-11-27T08:53:10;4.30;99.90
7588;DHT22;3835;48.850;8.938;2022-11-27T08:55:37;4.40;99.90
7588;DHT22;3835;48.850;8.938;2022-11-27T08:58:04;4.40;99.90
7588;DHT22;3835;48.850;8.938;2022-11-27T09:00:32;4.50;99.90
7588;DHT22;3835;48.850;8.938;2022-11-27T09:02:59;4.40;99.90
7588;DHT22;3835;48.850;8.938;2022-11-27T09:05:27;4.40;99.90
7588;DHT22;3835;48.850;8.938;2022-11-27T09:07:55;4.50;99.90
7588;DHT22;3835;48.850;8.938;2022-11-27T09:10:22;4.50;99.90
7588;DHT22;3835;48.850;8.938;2022-11-27T09:12:49;4.50;99.90
7588;DHT22;3835;48.850;8.938;2022-11-27T09:15:17;4.60;99.90
7588;DHT22;3835;48.850;8.938;2022-11-27T09:20:54;4.60;99.90
7588;DHT22;3835;48.850;8.938;2022-11-27T09:23:24;4.70;99.90
7588;DHT22;3835;48.850;8.938;2022-11-27T09:25:50;4.70;99.90
7588;DHT22;3835;48.850;8.938;2022-11-27T09:28:17;4.70;99.90
7588;DHT22;3835;48.850;8.938;2022-11-27T09:30:45;4.60;99.90
7588;DHT22;3835;48.850;8.938;2022-11-27T09:33:12;4.60;99.90
7588;DHT22;3835;48.850;8.938;2022-11-27T09:35:39;4.60;99.90
7588;DHT22;3835;48.850;8.938;2022-11-27T09:38:06;4.60;99.90
7588;DHT22;3835;48.850;8.938;2022-11-27T09:40:34;4.60;99.90
7588;DHT22;3835;48.850;8.938;2022-11-27T09:43:03;4.60;99.90
7588;DHT22;3835;48.850;8.938;2022-11-27T09:45:40;4.60;99.90
7588;DHT22;3835;48.850;8.938;2022-11-27T09:48:11;4.60;99.90
7588;DHT22;3835;48.850;8.938;2022-11-27T09:50:46;4.60;99.90
7588;DHT22;3835;48.850;8.938;2022-11-27T09:53:22;4.80;99.90
7588;DHT22;3835;48.850;8.938;2022-11-27T09:55:53;4.80;99.90
7588;DHT22;3835;48.850;8.938;2022-11-27T09:58:29;5.00;99.90
7588;DHT22;3835;48.850;8.938;2022-11-27T10:01:00;5.10;99.90
7588;DHT22;3835;48.850;8.938;2022-11-27T10:03:28;5.20;99.90
7588;DHT22;3835;48.850;8.938;2022-11-27T10:06:05;5.30;99.90
7588;DHT22;3835;48.850;8.938;2022-11-27T10:08:40;5.40;99.90
7588;DHT22;3835;48.850;8.938;2022-11-27T10:11:20;5.40;99.90
7588;DHT22;3835;48.850;8.938;2022-11-27T10:13:59;5.40;99.90
7588;DHT22;3835;48.850;8.938;2022-11-27T10:16:34;5.40;99.90
7588;DHT22;3835;48.850;8.938;2022-11-27T10:19:10;5.50;99.90
7588;DHT22;3835;48.850;8.938;2022-11-27T10:21:43;5.70;99.90
7588;DHT22;3835;48.850;8.938;2022-11-27T10:24:20;5.90;99.90
7588;DHT22;3835;48.850;8.938;2022-11-27T10:26:53;6.00;99.90
7588;DHT22;3835;48.850;8.938;2022-11-27T10:29:35;6.00;99.90
7588;DHT22;3835;48.850;8.938;2022-11-27T10:32:12;5.90;99.90
7588;DHT22;3835;48.850;8.938;2022-11-27T10:34:43;5.80;99.90
7588;DHT22;3835;48.850;8.938;2022-11-27T10:37:14;5.80;99.90
7588;DHT22;3835;48.850;8.938;2022-11-27T10:39:46;5.70;99.90
7588;DHT22;3835;48.850;8.938;2022-11-27T10:42:20;5.70;99.90
7588;DHT22;3835;48.850;8.938;2022-11-27T10:44:51;5.70;99.90
7588;DHT22;3835;48.850;8.938;2022-11-27T10:47:22;5.90;99.90
7588;DHT22;3835;48.850;8.938;2022-11-27T10:49:50;6.00;99.90
7588;DHT22;3835;48.850;8.938;2022-11-27T10:52:18;6.20;99.90
7588;DHT22;3835;48.850;8.938;2022-11-27T10:54:49;6.40;99.90
7588;DHT22;3835;48.850;8.938;2022-11-27T10:57:43;6.50;99.90
7588;DHT22;3835;48.850;8.938;2022-11-27T11:00:18;6.70;99.90
7588;DHT22;3835;48.850;8.938;2022-11-27T11:02:48;6.90;99.90
7588;DHT22;3835;48.850;8.938;2022-11-27T11:05:21;6.90;99.90
7588;DHT22;3835;48.850;8.938;2022-11-27T11:07:56;6.90;99.90
7588;DHT22;3835;48.850;8.938;2022-11-27T11:10:27;6.90;99.90
7588;DHT22;3835;48.850;8.938;2022-11-27T11:13:17;7.00;99.90
7588;DHT22;3835;48.850;8.938;2022-11-27T11:15:52;7.00;99.90
7588;DHT22;3835;48.850;8.938;2022-11-27T11:18:21;7.00;99.90
7588;DHT22;3835;48.850;8.938;2022-11-27T11:20:50;6.90;99.90
7588;DHT22;3835;48.850;8.938;2022-11-27T11:23:25;6.80;99.90
7588;DHT22;3835;48.850;8.938;2022-11-27T11:26:24;6.70;99.90
7588;DHT22;3835;48.850;8.938;2022-11-27T11:29:29;6.80;99.90
7588;DHT22;3835;48.850;8.938;2022-11-27T11:32:02;6.70;99.90
7588;DHT22;3835;48.850;8.938;2022-11-27T11:34:30;6.80;99.90
7588;DHT22;3835;48.850;8.938;2022-11-27T11:37:00;6.90;99.90
7588;DHT22;3835;48.850;8.938;2022-11-27T11:39:30;7.00;99.90
7588;DHT22;3835;48.850;8.938;2022-11-27T11:41:58;7.20;99.90
7588;DHT22;3835;48.850;8.938;2022-11-27T11:44:34;7.10;99.90
7588;DHT22;3835;48.850;8.938;2022-11-27T11:47:01;7.10;99.90
7588;DHT22;3835;48.850;8.938;2022-11-27T11:49:30;7.20;99.90
7588;DHT22;3835;48.850;8.938;2022-11-27T11:59:13;7.30;99.90
7588;DHT22;3835;48.850;8.938;2022-11-27T12:01:55;7.40;99.90
7588;DHT22;3835;48.850;8.938;2022-11-27T12:04:48;7.30;99.90
7588;DHT22;3835;48.850;8.938;2022-11-27T12:07:29;7.20;99.90
7588;DHT22;3835;48.850;8.938;2022-11-27T12:10:04;7.20;99.90
7588;DHT22;3835;48.850;8.938;2022-11-27T12:12:45;7.30;99.90
7588;DHT22;3835;48.850;8.938;2022-11-27T12:15:21;7.30;99.90
7588;DHT22;3835;48.850;8.938;2022-11-27T12:17:58;7.40;99.90
7588;DHT22;3835;48.850;8.938;2022-11-27T12:21:05;7.30;99.90
7588;DHT22;3835;48.850;8.938;2022-11-27T12:23:48;7.30;99.90
7588;DHT22;3835;48.850;8.938;2022-11-27T12:26:27;7.40;99.90
7588;DHT22;3835;48.850;8.938;2022-11-27T12:32:18;7.50;99.90
7588;DHT22;3835;48.850;8.938;2022-11-27T12:34:58;7.50;99.90
7588;DHT22;3835;48.850;8.938;2022-11-27T12:37:37;7.60;99.90
7588;DHT22;3835;48.850;8.938;2022-11-27T12:40:23;7.60;99.90
7588;DHT22;3835;48.850;8.938;2022-11-27T12:43:01;7.60;99.90
7588;DHT22;3835;48.850;8.938;2022-11-27T12:45:35;8.20;99.90
7588;DHT22;3835;48.850;8.938;2022-11-27T12:48:11;8.30;99.90
7588;DHT22;3835;48.850;8.938;2022-11-27T12:50:43;8.50;99.90
7588;DHT22;3835;48.850;8.938;2022-11-27T12:53:15;8.70;99.90
7588;DHT22;3835;48.850;8.938;2022-11-27T12:55:57;8.60;99.90
7588;DHT22;3835;48.850;8.938;2022-11-27T12:58:27;8.60;99.90
7588;DHT22;3835;48.850;8.938;2022-11-27T13:01:01;8.70;99.90
7588;DHT22;3835;48.850;8.938;2022-11-27T13:03:34;9.30;99.90
7588;DHT22;3835;48.850;8.938;2022-11-27T13:06:08;8.90;99.90
7588;DHT22;3835;48.850;8.938;2022-11-27T13:08:43;8.70;99.90
7588;DHT22;3835;48.850;8.938;2022-11-27T13:11:15;8.50;99.90
7588;DHT22;3835;48.850;8.938;2022-11-27T13:13:45;8.40;99.90
7588;DHT22;3835;48.850;8.938;2022-11-27T13:16:18;8.40;99.90
7588;DHT22;3835;48.850;8.938;2022-11-27T13:18:50;8.40;99.90
7588;DHT22;3835;48.850;8.938;2022-11-27T13:24:24;8.50;99.90
7588;DHT22;3835;48.850;8.938;2022-11-27T13:26:55;8.40;99.90
7588;DHT22;3835;48.850;8.938;2022-11-27T13:29:27;8.30;99.90
7588;DHT22;3835;48.850;8.938;2022-11-27T13:31:57;8.30;99.90
7588;DHT22;3835;48.850;8.938;2022-11-27T13:34:26;8.30;99.90
7588;DHT22;3835;48.850;8.938;2022-11-27T13:36:57;8.20;99.90
7588;DHT22;3835;48.850;8.938;2022-11-27T13:39:28;8.40;99.90
7588;DHT22;3835;48.850;8.938;2022-11-27T13:42:02;8.50;99.90
7588;DHT22;3835;48.850;8.938;2022-11-27T13:44:30;8.60;99.90
7588;DHT22;3835;48.850;8.938;2022-11-27T13:47:03;8.50;99.90
7588;DHT22;3835;48.850;8.938;2022-11-27T13:49:33;8.70;99.90
7588;DHT22;3835;48.850;8.938;2022-11-27T13:52:07;8.70;99.90
7588;DHT22;3835;48.850;8.938;2022-11-27T13:54:38;8.60;99.90
7588;DHT22;3835;48.850;8.938;2022-11-27T13:57:12;8.60;99.90
7588;DHT22;3835;48.850;8.938;2022-11-27T13:59:40;8.70;99.90
7588;DHT22;3835;48.850;8.938;2022-11-27T14:02:08;8.60;99.90
7588;DHT22;3835;48.850;8.938;2022-11-27T14:04:35;8.80;99.90
7588;DHT22;3835;48.850;8.938;2022-11-27T14:07:14;8.70;99.90
7588;DHT22;3835;48.850;8.938;2022-11-27T14:09:44;8.70;99.90
7588;DHT22;3835;48.850;8.938;2022-11-27T14:12:19;8.60;99.90
7588;DHT22;3835;48.850;8.938;2022-11-27T14:15:03;8.70;99.90
7588;DHT22;3835;48.850;8.938;2022-11-27T14:17:38;8.60;99.90
7588;DHT22;3835;48.850;8.938;2022-11-27T14:20:21;8.60;99.90
7588;DHT22;3835;48.850;8.938;2022-11-27T14:22:52;8.40;99.90
7588;DHT22;3835;48.850;8.938;2022-11-27T14:25:22;8.20;99.90
7588;DHT22;3835;48.850;8.938;2022-11-27T14:27:56;7.90;99.90
7588;DHT22;3835;48.850;8.938;2022-11-27T14:30:32;8.00;99.90
7588;DHT22;3835;48.850;8.938;2022-11-27T14:33:00;8.00;99.90
7588;DHT22;3835;48.850;8.938;2022-11-27T14:35:28;8.10;99.90
7588;DHT22;3835;48.850;8.938;2022-11-27T14:38:08;8.20;99.90
7588;DHT22;3835;48.850;8.938;2022-11-27T14:40:36;7.90;99.90
7588;DHT22;3835;48.850;8.938;2022-11-27T14:43:12;7.70;99.90
7588;DHT22;3835;48.850;8.938;2022-11-27T14:45:53;7.60;99.90
7588;DHT22;3835;48.850;8.938;2022-11-27T14:48:23;7.80;99.90
7588;DHT22;3835;48.850;8.938;2022-11-27T14:50:51;7.50;99.90
7588;DHT22;3835;48.850;8.938;2022-11-27T14:53:21;7.30;99.90
7588;DHT22;3835;48.850;8.938;2022-11-27T14:55:51;7.20;99.90
7588;DHT22;3835;48.850;8.938;2022-11-27T14:58:21;7.80;99.90
7588;DHT22;3835;48.850;8.938;2022-11-27T15:00:51;7.90;99.90
7588;DHT22;3835;48.850;8.938;2022-11-27T15:03:20;7.80;99.90
7588;DHT22;3835;48.850;8.938;2022-11-27T15:05:52;7.70;99.90
7588;DHT22;3835;48.850;8.938;2022-11-27T15:08:21;7.80;99.90
7588;DHT22;3835;48.850;8.938;2022-11-27T15:10:52;7.90;99.90
7588;DHT22;3835;48.850;8.938;2022-11-27T15:13:22;7.80;99.90
7588;DHT22;3835;48.850;8.938;2022-11-27T15:18:26;7.10;99.90
7588;DHT22;3835;48.850;8.938;2022-11-27T15:20:54;6.80;99.90
7588;DHT22;3835;48.850;8.938;2022-11-27T15:23:26;6.70;99.90
7588;DHT22;3835;48.850;8.938;2022-11-27T15:26:05;6.60;99.90
7588;DHT22;3835;48.850;8.938;2022-11-27T15:28:34;6.50;99.90
7588;DHT22;3835;48.850;8.938;2022-11-27T15:31:19;6.40;99.90
7588;DHT22;3835;48.850;8.938;2022-11-27T15:33:54;6.30;99.90
7588;DHT22;3835;48.850;8.938;2022-11-27T15:36:21;6.20;99.90
7588;DHT22;3835;48.850;8.938;2022-11-27T15:38:50;6.20;99.90
7588;DHT22;3835;48.850;8.938;2022-11-27T15:41:27;6.10;99.90
7588;DHT22;3835;48.850;8.938;2022-11-27T15:43:54;6.10;99.90
7588;DHT22;3835;48.850;8.938;2022-11-27T15:46:24;6.00;99.90
7588;DHT22;3835;48.850;8.938;2022-11-27T15:48:52;6.00;99.90
7588;DHT22;3835;48.850;8.938;2022-11-27T15:51:20;6.00;99.90
7588;DHT22;3835;48.850;8.938;2022-11-27T15:53:55;6.00;99.90
7588;DHT22;3835;48.850;8.938;2022-11-27T15:56:23;6.10;99.90
7588;DHT22;3835;48.850;8.938;2022-11-27T15:58:51;6.10;99.90
7588;DHT22;3835;48.850;8.938;2022-11-27T16:01:17;6.10;99.90
7588;DHT22;3835;48.850;8.938;2022-11-27T16:03:44;6.10;99.90
7588;DHT22;3835;48.850;8.938;2022-11-27T16:06:11;6.00;99.90
7588;DHT22;3835;48.850;8.938;2022-11-27T16:08:38;6.10;99.90
7588;DHT22;3835;48.850;8.938;2022-11-27T16:11:09;6.10;99.90
7588;DHT22;3835;48.850;8.938;2022-11-27T16:13:38;6.10;99.90
7588;DHT22;3835;48.850;8.938;2022-11-27T16:16:06;6.10;99.90
7588;DHT22;3835;48.850;8.938;2022-11-27T16:18:34;6.10;99.90
7588;DHT22;3835;48.850;8.938;2022-11-27T16:21:02;6.10;99.90
7588;DHT22;3835;48.850;8.938;2022-11-27T16:23:29;6.10;99.90
7588;DHT22;3835;48.850;8.938;2022-11-27T16:25:57;6.00;99.90
7588;DHT22;3835;48.850;8.938;2022-11-27T16:28:26;6.00;99.90
7588;DHT22;3835;48.850;8.938;2022-11-27T16:30:53;6.00;99.90
7588;DHT22;3835;48.850;8.938;2022-11-27T16:33:23;6.00;99.90
7588;DHT22;3835;48.850;8.938;2022-11-27T16:35:50;6.00;99.90
7588;DHT22;3835;48.850;8.938;2022-11-27T16:38:17;6.00;99.90
7588;DHT22;3835;48.850;8.938;2022-11-27T16:40:45;6.00;99.90
7588;DHT22;3835;48.850;8.938;2022-11-27T16:43:12;6.00;99.90
7588;DHT22;3835;48.850;8.938;2022-11-27T16:45:41;6.00;99.90
7588;DHT22;3835;48.850;8.938;2022-11-27T16:48:08;6.00;99.90
7588;DHT22;3835;48.850;8.938;2022-11-27T16:50:35;5.90;99.90
7588;DHT22;3835;48.850;8.938;2022-11-27T16:53:02;5.90;99.90
7588;DHT22;3835;48.850;8.938;2022-11-27T16:55:29;5.90;99.90
7588;DHT22;3835;48.850;8.938;2022-11-27T16:57:56;5.90;99.90